createdAt,value
2023-05-14T04:27:44.990Z,96828.41
2023-05-14T04:30:12.021Z,96834.66
2023-05-14T04:32:38.778Z,96840.44
2023-05-14T04:35:05.935Z,96846.53
2023-05-14T04:37:32.626Z,96840.50
2023-05-14T04:39:59.382Z,96832.41
2023-05-14T04:42:26.151Z,96843.31
2023-05-14T04:44:52.921Z,96842.72
2023-05-14T04:47:19.707Z,96845.19
2023-05-14T04:49:46.444Z,96843.88
2023-05-14T04:52:13.207Z,96844.69
2023-05-14T04:54:40.022Z,96840.56
2023-05-14T04:57:07.167Z,96845.78
2023-05-14T04:59:33.930Z,96842.16
2023-05-14T05:02:00.759Z,96849.56
2023-05-14T05:04:27.696Z,96845.47
2023-05-14T05:06:54.485Z,96846.53
2023-05-14T05:09:21.189Z,96849.25
2023-05-14T05:11:47.922Z,96847.28
2023-05-14T05:14:14.677Z,96856.28
2023-05-14T05:16:41.474Z,96854.94
2023-05-14T05:19:08.442Z,96862.88
2023-05-14T05:21:35.394Z,96857.44
2023-05-14T05:24:02.118Z,96850.09
2023-05-14T05:26:28.884Z,96854.94
2023-05-14T05:28:55.598Z,96859.00
2023-05-14T05:31:22.532Z,96855.78
2023-05-14T05:33:49.285Z,96863.44
2023-05-14T05:36:16.097Z,96856.63
2023-05-14T05:38:42.807Z,96860.97
2023-05-14T05:41:09.478Z,96859.41
2023-05-14T05:43:36.172Z,96865.34
2023-05-14T05:46:02.914Z,96858.81
2023-05-14T05:48:29.763Z,96867.25
2023-05-14T05:50:56.513Z,96866.69
2023-05-14T05:53:23.320Z,96860.16
2023-05-14T05:55:50.008Z,96861.25
2023-05-14T05:58:16.684Z,96862.28
2023-05-14T06:00:43.378Z,96861.81
2023-05-14T06:03:10.802Z,96860.72
2023-05-14T06:05:37.639Z,96866.75
2023-05-14T06:08:04.806Z,96863.75
2023-05-14T06:10:31.531Z,96864.03
2023-05-14T06:12:58.366Z,96856.16
2023-05-14T06:15:25.155Z,96860.47
2023-05-14T06:17:51.963Z,96858.31
2023-05-14T06:20:19.124Z,96863.50
2023-05-14T06:22:45.901Z,96862.44
2023-05-14T06:25:12.577Z,96859.72
2023-05-14T06:27:39.328Z,96859.97
2023-05-14T06:30:06.665Z,96862.44
2023-05-14T06:32:33.503Z,96857.59
2023-05-14T06:35:00.296Z,96860.31
2023-05-14T06:37:27.050Z,96860.06
2023-05-14T06:39:54.704Z,96862.84
2023-05-14T06:42:22.446Z,96864.16
2023-05-14T06:44:49.117Z,96863.59
2023-05-14T06:47:15.932Z,96869.88
2023-05-14T06:49:42.635Z,96871.84
2023-05-14T06:52:09.399Z,96875.38
2023-05-14T06:54:36.207Z,96875.38
2023-05-14T06:57:02.939Z,96868.53
2023-05-14T06:59:29.970Z,96877.03
2023-05-14T07:01:56.845Z,96875.13
2023-05-14T07:04:23.710Z,96873.72
2023-05-14T07:06:50.488Z,96876.72
2023-05-14T07:09:17.254Z,96877.84
2023-05-14T07:11:43.958Z,96879.75
2023-05-14T07:14:10.677Z,96872.66
2023-05-14T07:16:37.464Z,96871.09
2023-05-14T07:19:04.287Z,96874.66
2023-05-14T07:21:31.107Z,96864.34
2023-05-14T07:23:57.892Z,96863.81
2023-05-14T07:26:24.637Z,96859.53
2023-05-14T07:28:51.391Z,96860.03
2023-05-14T07:31:18.251Z,96856.97
2023-05-14T07:33:45.006Z,96855.91
2023-05-14T07:36:11.848Z,96853.19
2023-05-14T07:38:38.656Z,96856.47
2023-05-14T07:41:05.543Z,96854.00
2023-05-14T07:43:32.318Z,96851.63
2023-05-14T07:45:59.133Z,96854.91
2023-05-14T07:48:25.985Z,96850.03
2023-05-14T07:50:52.779Z,96854.41
2023-05-14T07:53:19.614Z,96852.19
2023-05-14T07:55:46.338Z,96848.38
2023-05-14T07:58:13.146Z,96847.22
2023-05-14T08:00:39.865Z,96836.91
2023-05-14T08:03:06.815Z,96845.91
2023-05-14T08:05:33.619Z,96844.25
2023-05-14T08:08:00.452Z,96846.09
2023-05-14T08:10:27.581Z,96852.22
2023-05-14T08:12:54.641Z,96847.03
2023-05-14T08:15:21.488Z,96848.13
2023-05-14T08:17:48.279Z,96840.47
2023-05-14T08:20:15.124Z,96840.19
2023-05-14T08:22:42.194Z,96841.53
2023-05-14T08:25:09.155Z,96836.25
2023-05-14T08:27:35.916Z,96840.38
2023-05-14T08:30:02.813Z,96835.00
2023-05-14T08:32:29.718Z,96832.31
2023-05-14T08:34:56.473Z,96832.03
2023-05-14T08:37:23.272Z,96818.38
2023-05-14T08:39:50.228Z,96820.03
2023-05-14T08:42:16.956Z,96826.00
2023-05-14T08:44:50.278Z,96822.75
2023-05-14T08:47:18.416Z,96809.78
2023-05-14T08:49:47.301Z,96816.88
2023-05-14T08:52:14.240Z,96810.34
2023-05-14T08:54:40.981Z,96809.31
2023-05-14T08:57:10.759Z,96806.56
2023-05-14T08:59:37.808Z,96805.03
2023-05-14T09:02:05.517Z,96805.88
2023-05-14T09:04:32.619Z,96810.50
2023-05-14T09:07:00.443Z,96814.63
2023-05-14T09:09:27.605Z,96813.78
2023-05-14T09:11:54.461Z,96805.03
2023-05-14T09:14:22.358Z,96798.78
2023-05-14T09:16:49.802Z,96810.84
2023-05-14T09:19:16.987Z,96804.03
2023-05-14T09:21:43.903Z,96805.38
2023-05-14T09:24:10.590Z,96799.66
2023-05-14T09:26:37.488Z,96798.50
2023-05-14T09:29:04.417Z,96804.47
2023-05-14T09:31:32.250Z,96802.56
2023-05-14T09:33:59.348Z,96801.50
2023-05-14T09:36:26.368Z,96790.59
2023-05-14T09:38:56.259Z,96794.47
2023-05-14T09:41:23.018Z,96788.50
2023-05-14T09:43:50.971Z,96791.47
2023-05-14T09:46:17.800Z,96789.19
2023-05-14T09:48:45.954Z,96787.25
2023-05-14T09:51:13.215Z,96794.34
2023-05-14T09:53:39.969Z,96785.34
2023-05-14T09:56:06.985Z,96782.28
2023-05-14T09:58:33.693Z,96783.56
2023-05-14T10:01:01.075Z,96781.94
2023-05-14T10:03:27.835Z,96774.56
2023-05-14T10:05:54.580Z,96781.31
2023-05-14T10:08:27.779Z,96772.56
2023-05-14T10:10:54.941Z,96775.81
2023-05-14T10:13:24.020Z,96775.25
2023-05-14T10:15:57.779Z,96773.03
2023-05-14T10:18:24.531Z,96777.66
2023-05-14T10:21:00.959Z,96778.00
2023-05-14T10:23:27.788Z,96773.09
2023-05-14T10:25:54.512Z,96770.38
2023-05-14T10:28:21.289Z,96772.56
2023-05-14T10:30:48.115Z,96766.31
2023-05-14T10:33:15.312Z,96770.91
2023-05-14T10:35:51.849Z,96766.81
2023-05-14T10:38:22.739Z,96769.91
2023-05-14T10:40:50.702Z,96768.06
2023-05-14T10:43:18.392Z,96769.81
2023-05-14T10:45:45.480Z,96765.22
2023-05-14T10:48:12.251Z,96754.00
2023-05-14T10:50:39.037Z,96761.34
2023-05-14T10:53:05.791Z,96758.63
2023-05-14T10:55:32.523Z,96762.88
2023-05-14T10:57:59.315Z,96763.69
2023-05-14T11:00:26.202Z,96761.19
2023-05-14T11:02:53.108Z,96758.56
2023-05-14T11:05:19.861Z,96759.38
2023-05-14T11:07:48.480Z,96766.19
2023-05-14T11:10:19.389Z,96760.97
2023-05-14T11:12:50.020Z,96757.41
2023-05-14T11:15:18.134Z,96752.28
2023-05-14T11:17:45.541Z,96758.28
2023-05-14T11:20:12.681Z,96744.00
2023-05-14T11:22:40.110Z,96746.50
2023-05-14T11:25:07.524Z,96749.13
2023-05-14T11:27:35.255Z,96744.44
2023-05-14T11:30:02.118Z,96748.25
2023-05-14T11:32:28.850Z,96743.91
2023-05-14T11:34:55.586Z,96737.88
2023-05-14T11:37:22.292Z,96747.22
2023-05-14T11:39:49.603Z,96748.53
2023-05-14T11:42:16.425Z,96741.19
2023-05-14T11:44:43.150Z,96740.44
2023-05-14T11:47:10.272Z,96736.16
2023-05-14T11:49:37.182Z,96728.81
2023-05-14T11:52:05.428Z,96722.16
2023-05-14T11:54:33.223Z,96721.34
2023-05-14T11:57:01.505Z,96723.53
2023-05-14T11:59:28.788Z,96728.94
2023-05-14T12:01:55.527Z,96722.88
2023-05-14T12:04:22.324Z,96720.66
2023-05-14T12:06:49.833Z,96714.41
2023-05-14T12:09:20.113Z,96716.84
2023-05-14T12:11:47.672Z,96712.78
2023-05-14T12:14:19.988Z,96721.78
2023-05-14T12:16:49.468Z,96707.06
2023-05-14T12:19:19.692Z,96715.25
2023-05-14T12:21:47.668Z,96716.06
2023-05-14T12:24:16.038Z,96715.81
2023-05-14T12:26:50.874Z,96717.22
2023-05-14T12:29:18.843Z,96713.66
2023-05-14T12:31:49.598Z,96709.31
2023-05-14T12:34:16.753Z,96712.66
2023-05-14T12:36:43.721Z,96706.44
2023-05-14T12:39:10.968Z,96705.69
2023-05-14T12:41:37.707Z,96711.44
2023-05-14T12:44:04.868Z,96706.53
2023-05-14T12:46:31.696Z,96712.28
2023-05-14T12:48:58.512Z,96702.19
2023-05-14T12:51:25.343Z,96702.75
2023-05-14T12:53:52.102Z,96695.94
2023-05-14T12:56:18.909Z,96701.13
2023-05-14T12:58:45.728Z,96701.34
2023-05-14T13:01:12.661Z,96694.53
2023-05-14T13:03:39.483Z,96697.81
2023-05-14T13:06:06.341Z,96696.47
2023-05-14T13:08:33.066Z,96688.44
2023-05-14T13:10:59.877Z,96688.19
2023-05-14T13:13:26.663Z,96680.59
2023-05-14T13:15:53.439Z,96675.53
2023-05-14T13:18:20.236Z,96687.53
2023-05-14T13:20:47.071Z,96677.75
2023-05-14T13:23:14.374Z,96672.59
2023-05-14T13:25:41.112Z,96681.63
2023-05-14T13:28:08.611Z,96674.78
2023-05-14T13:30:35.400Z,96674.72
2023-05-14T13:33:02.459Z,96667.78
2023-05-14T13:35:29.272Z,96669.16
2023-05-14T13:37:56.122Z,96661.97
2023-05-14T13:40:22.953Z,96660.88
2023-05-14T13:42:49.727Z,96658.19
2023-05-14T13:45:16.585Z,96660.91
2023-05-14T13:47:43.598Z,96662.31
2023-05-14T13:50:10.718Z,96656.34
2023-05-14T13:52:37.609Z,96659.91
2023-05-14T13:55:04.796Z,96659.44
2023-05-14T13:57:31.567Z,96643.66
2023-05-14T13:59:58.326Z,96652.16
2023-05-14T14:02:25.150Z,96653.50
2023-05-14T14:04:51.982Z,96655.06
2023-05-14T14:07:18.856Z,96663.72
2023-05-14T14:09:45.757Z,96657.66
2023-05-14T14:12:12.807Z,96660.91
2023-05-14T14:14:39.503Z,96658.50
2023-05-14T14:17:06.279Z,96650.81
2023-05-14T14:19:32.987Z,96648.69
2023-05-14T14:21:59.683Z,96648.50
2023-05-14T14:24:26.671Z,96648.00
2023-05-14T14:26:53.361Z,96646.34
2023-05-14T14:29:22.933Z,96645.22
2023-05-14T14:31:49.873Z,96643.50
2023-05-14T14:34:16.847Z,96651.91
2023-05-14T14:36:45.738Z,96648.25
2023-05-14T14:39:12.554Z,96661.63
2023-05-14T14:41:39.248Z,96649.41
2023-05-14T14:44:06.071Z,96640.84
2023-05-14T14:46:33.119Z,96646.97
2023-05-14T14:49:02.886Z,96639.91
2023-05-14T14:51:29.855Z,96641.72
2023-05-14T14:53:56.635Z,96651.78
2023-05-14T14:56:23.293Z,96637.16
2023-05-14T14:58:50.000Z,96640.50
2023-05-14T15:01:16.738Z,96644.00
2023-05-14T15:03:43.523Z,96642.13
2023-05-14T15:06:10.252Z,96647.69
2023-05-14T15:08:37.102Z,96645.91
2023-05-14T15:11:03.804Z,96639.72
2023-05-14T15:13:30.579Z,96629.00
2023-05-14T15:15:57.454Z,96631.34
2023-05-14T15:18:24.295Z,96635.34
2023-05-14T15:20:51.096Z,96631.28
2023-05-14T15:23:17.853Z,96634.13
2023-05-14T15:25:44.755Z,96632.81
2023-05-14T15:28:11.624Z,96625.78
2023-05-14T15:30:38.475Z,96619.81
2023-05-14T15:33:07.608Z,96639.13
2023-05-14T15:35:34.603Z,96634.69
2023-05-14T15:38:01.351Z,96637.72
2023-05-14T15:40:28.134Z,96640.50
2023-05-14T15:42:56.219Z,96648.63
2023-05-14T15:45:23.011Z,96652.84
2023-05-14T15:47:49.810Z,96653.47
2023-05-14T15:50:16.588Z,96643.78
2023-05-14T15:52:43.437Z,96661.03
2023-05-14T15:55:10.451Z,96641.25
2023-05-14T15:57:37.276Z,96641.25
2023-05-14T16:00:04.652Z,96604.91
2023-05-14T16:02:31.549Z,96606.69
2023-05-14T16:04:58.392Z,96598.56
2023-05-14T16:07:25.218Z,96597.03
2023-05-14T16:09:51.949Z,96594.97
2023-05-14T16:12:18.805Z,96636.28
2023-05-14T16:14:45.618Z,96635.53
2023-05-14T16:17:12.485Z,96631.50
2023-05-14T16:19:39.423Z,96628.50
2023-05-14T16:22:06.276Z,96638.84
2023-05-14T16:24:32.972Z,96636.19
2023-05-14T16:26:59.728Z,96641.00
2023-05-14T16:29:26.438Z,96632.97
2023-05-14T16:31:53.263Z,96634.56
2023-05-14T16:37:42.063Z,96639.31
2023-05-14T16:40:09.314Z,96651.88
2023-05-14T16:42:36.090Z,96652.47
2023-05-14T16:45:02.921Z,96660.16
2023-05-14T16:47:29.689Z,96661.94
2023-05-14T16:49:56.536Z,96670.47
2023-05-14T16:52:23.339Z,96667.56
2023-05-14T16:54:50.103Z,96675.03
2023-05-14T16:57:16.818Z,96666.28
2023-05-14T16:59:43.577Z,96673.41
2023-05-14T17:02:10.349Z,96669.59
2023-05-14T17:04:37.210Z,96672.91
2023-05-14T17:07:05.051Z,96674.22
2023-05-14T17:09:31.769Z,96682.16
2023-05-14T17:11:58.537Z,96679.13
2023-05-14T17:14:25.284Z,96685.13
2023-05-14T17:16:51.996Z,96692.22
2023-05-14T17:19:18.860Z,96687.28
2023-05-14T17:21:45.610Z,96702.91
2023-05-14T17:24:12.397Z,96705.34
2023-05-14T17:26:39.075Z,96705.91
2023-05-14T17:29:05.854Z,96714.31
2023-05-14T17:31:32.665Z,96710.47
2023-05-14T17:33:59.499Z,96713.19
2023-05-14T17:36:26.304Z,96729.84
2023-05-14T17:38:53.072Z,96730.63
2023-05-14T17:41:19.842Z,96725.97
2023-05-14T17:43:46.583Z,96719.69
2023-05-14T17:46:13.289Z,96718.81
2023-05-14T17:48:40.058Z,96716.63
2023-05-14T17:51:06.791Z,96715.22
2023-05-14T17:53:33.547Z,96717.66
2023-05-14T17:56:00.344Z,96723.13
2023-05-14T17:58:27.045Z,96724.97
2023-05-14T18:00:53.841Z,96720.53
2023-05-14T18:03:20.992Z,96713.97
2023-05-14T18:05:48.052Z,96732.47
2023-05-14T18:08:14.767Z,96728.59
2023-05-14T18:10:42.342Z,96724.22
2023-05-14T18:13:09.152Z,96723.13
2023-05-14T18:15:38.944Z,96723.09
2023-05-14T18:18:05.912Z,96736.19
2023-05-14T18:20:33.517Z,96741.09
2023-05-14T18:23:02.615Z,96743.00
2023-05-14T18:25:29.310Z,96749.28
2023-05-14T18:27:56.294Z,96757.69
2023-05-14T18:30:23.137Z,96759.56
2023-05-14T18:32:49.909Z,96775.31
2023-05-14T18:35:16.799Z,96772.31
2023-05-14T18:37:43.683Z,96785.94
2023-05-14T18:40:10.606Z,96784.31
2023-05-14T18:42:37.418Z,96782.09
2023-05-14T18:45:04.703Z,96791.59
2023-05-14T18:47:32.032Z,96798.69
2023-05-14T18:49:58.868Z,96800.06
2023-05-14T18:52:25.934Z,96806.59
2023-05-14T18:54:52.832Z,96817.44
2023-05-14T18:57:19.609Z,96807.84
2023-05-14T18:59:46.355Z,96809.75
2023-05-14T19:02:13.061Z,96805.59
2023-05-14T19:32:23.780Z,96846.28
2023-05-14T19:34:51.600Z,96838.97
2023-05-14T19:37:18.510Z,96831.31
2023-05-14T19:39:45.191Z,96838.41
2023-05-14T19:42:11.962Z,96854.78
2023-05-14T19:44:38.730Z,96859.09
2023-05-14T19:47:05.822Z,96864.56
2023-05-14T19:49:32.567Z,96871.88
2023-05-14T19:51:59.347Z,96871.31
2023-05-14T19:54:26.018Z,96873.75
2023-05-14T19:56:52.753Z,96872.91
2023-05-14T19:59:19.540Z,96881.34
2023-05-14T20:01:46.315Z,96871.53
2023-05-14T20:04:13.136Z,96870.72
2023-05-14T20:06:39.871Z,96874.25
2023-05-14T20:09:06.614Z,96884.44
2023-05-14T20:11:34.983Z,96890.41
2023-05-14T20:14:03.228Z,96886.94
2023-05-14T20:16:30.067Z,96891.06
2023-05-14T20:18:56.758Z,96889.47
2023-05-14T20:21:23.515Z,96886.16
2023-05-14T20:23:50.252Z,96885.66
2023-05-14T20:26:17.089Z,96883.69
2023-05-14T20:28:43.781Z,96873.88
2023-05-14T20:31:10.476Z,96878.75
2023-05-14T20:33:37.253Z,96878.25
2023-05-14T20:36:04.097Z,96871.97
2023-05-14T20:38:31.049Z,96867.59
2023-05-14T20:40:57.778Z,96862.97
2023-05-14T20:43:28.475Z,96865.69
2023-05-14T20:45:57.186Z,96867.59
2023-05-14T20:48:24.014Z,96874.44
